Time;durP1;ratioP1;P1;durP2;ratioP2;P2;SDS_P1;SDS_P2;PMS_P1;PMS_P2;Temp;Humidity;BMP_temperature;BMP_pressure;BME280_temperature;BME280_humidity;BME280_pressure;Samples;Min_cycle;Max_cycle;Signal;HPM_P1;HPM_P2
2022/02/03 00:00:39;;;;;;;9.43;3.88;;;7.90;99.90;;;;;;4979676;28;20435;-92
2022/02/03 00:05:54;;;;;;;14.63;2.78;;;7.90;99.90;;;;;;4996706;28;20037;-90
2022/02/03 00:11:18;;;;;;;8.63;3.22;;;7.90;99.90;;;;;;4996372;28;20022;-91
2022/02/03 00:22:21;;;;;;;9.32;2.92;;;7.90;99.90;;;;;;4977278;28;20077;-90
2022/02/03 00:25:02;;;;;;;9.60;2.22;;;7.90;99.90;;;;;;4986003;28;20628;-91
2022/02/03 00:28:21;;;;;;;11.02;2.67;;;7.90;99.90;;;;;;4998385;28;20065;-91
2022/02/03 00:30:34;;;;;;;9.25;2.28;;;7.90;99.90;;;;;;5011971;28;20041;-92
2022/02/03 00:33:15;;;;;;;11.55;2.28;;;7.90;99.90;;;;;;4995482;28;20034;-88
2022/02/03 00:35:56;;;;;;;10.85;2.70;;;7.80;99.90;;;;;;4977827;28;20038;-91
2022/02/03 00:49:20;;;;;;;21.00;3.85;;;7.90;99.90;;;;;;4996764;28;20085;-90
2022/02/03 00:51:51;;;;;;;8.43;3.60;;;7.90;99.90;;;;;;4995818;28;20034;-91
2022/02/03 00:54:20;;;;;;;10.50;3.47;;;8.00;99.90;;;;;;4985553;28;20432;-91
2022/02/03 00:57:09;;;;;;;16.90;4.20;;;8.00;99.90;;;;;;4979861;28;20032;-91
2022/02/03 00:59:42;;;;;;;13.38;3.08;;;8.00;99.90;;;;;;4978334;28;20065;-89
2022/02/03 01:02:13;;;;;;;10.80;4.53;;;8.00;99.90;;;;;;4976115;28;20049;-90
2022/02/03 01:04:42;;;;;;;13.65;4.50;;;8.00;99.90;;;;;;4974270;28;20053;-90
2022/02/03 01:07:15;;;;;;;16.30;4.50;;;8.00;99.90;;;;;;4993931;28;20038;-88
2022/02/03 01:09:56;;;;;;;12.60;3.95;;;8.00;99.90;;;;;;4978746;28;20403;-89
2022/02/03 01:12:34;;;;;;;15.30;4.28;;;8.00;99.90;;;;;;4978686;28;20034;-90
2022/02/03 01:18:20;;;;;;;12.98;4.57;;;8.00;99.90;;;;;;4991978;28;20567;-88
2022/02/03 01:45:01;;;;;;;8.50;2.80;;;7.80;99.90;;;;;;4954725;29;20531;-91
2022/02/03 01:47:50;;;;;;;13.50;3.30;;;7.80;99.90;;;;;;4953765;29;20059;-91
2022/02/03 01:52:54;;;;;;;15.65;3.85;;;7.80;99.90;;;;;;4950812;28;20035;-90
2022/02/03 01:55:24;;;;;;;11.13;3.05;;;7.80;99.90;;;;;;4952549;29;20456;-91
2022/02/03 01:58:11;;;;;;;11.65;2.92;;;7.80;99.90;;;;;;4949892;29;20044;-91
2022/02/03 02:00:39;;;;;;;10.48;2.88;;;7.80;99.90;;;;;;4961652;28;20045;-91
2022/02/03 02:03:12;;;;;;;10.80;3.03;;;7.80;99.90;;;;;;4975230;28;20019;-90
2022/02/03 02:06:12;;;;;;;11.65;4.03;;;7.80;99.90;;;;;;4968631;28;20464;-90
2022/02/03 02:08:44;;;;;;;15.52;3.85;;;7.80;99.90;;;;;;4986378;28;20027;-91
2022/02/03 02:11:19;;;;;;;10.38;3.90;;;7.80;99.90;;;;;;4966608;28;20034;-89
2022/02/03 02:14:13;;;;;;;9.75;3.63;;;7.80;99.90;;;;;;4990654;28;20070;-92
2022/02/03 02:17:20;;;;;;;11.73;3.80;;;7.80;99.90;;;;;;4964666;28;20126;-92
2022/02/03 02:39:47;;;;;;;9.18;4.55;;;7.70;99.90;;;;;;4927964;29;20091;-89
2022/02/03 02:45:00;;;;;;;13.30;4.43;;;7.70;99.90;;;;;;4928834;29;20090;-91
2022/02/03 02:47:31;;;;;;;16.55;4.15;;;7.70;99.90;;;;;;4935703;29;20024;-92
2022/02/03 02:50:01;;;;;;;11.75;3.97;;;7.70;99.90;;;;;;4929788;29;20015;-91
2022/02/03 02:52:37;;;;;;;9.48;3.58;;;7.70;99.90;;;;;;4929607;29;20114;-91
2022/02/03 02:55:44;;;;;;;14.35;3.97;;;7.70;99.90;;;;;;4929438;29;20032;-91
2022/02/03 03:03:38;;;;;;;10.50;2.97;;;7.60;99.90;;;;;;4994949;28;20015;-90
2022/02/03 03:31:28;;;;;;;9.02;2.30;;;7.70;99.90;;;;;;4985464;28;20045;-91
2022/02/03 03:36:38;;;;;;;8.13;2.47;;;7.60;99.90;;;;;;4987233;28;20097;-90
2022/02/03 03:39:04;;;;;;;7.18;2.42;;;7.60;99.90;;;;;;4970096;28;20034;-89
2022/02/03 03:41:34;;;;;;;14.25;2.13;;;7.60;99.90;;;;;;4968711;28;20042;-91
2022/02/03 03:44:07;;;;;;;21.35;2.40;;;7.60;99.90;;;;;;4973180;28;20104;-90
2022/02/03 03:46:38;;;;;;;5.25;1.85;;;7.60;99.90;;;;;;4972901;28;20038;-89
2022/02/03 03:49:30;;;;;;;9.35;2.00;;;7.60;99.90;;;;;;4974410;28;20045;-90
2022/02/03 03:52:06;;;;;;;12.20;1.90;;;7.60;99.90;;;;;;4975961;28;21727;-90
2022/02/03 03:54:44;;;;;;;9.18;2.38;;;7.60;99.90;;;;;;4972557;28;20048;-89
2022/02/03 03:57:44;;;;;;;10.68;2.08;;;7.50;99.90;;;;;;4970978;28;20034;-90
2022/02/03 04:30:17;;;;;;;9.45;1.77;;;7.50;99.90;;;;;;4990058;28;20069;-91
2022/02/03 04:38:56;;;;;;;13.30;2.42;;;7.50;99.90;;;;;;4992233;28;20038;-92
2022/02/03 04:56:45;;;;;;;7.70;1.77;;;7.40;99.90;;;;;;4987890;28;20436;-90
2022/02/03 05:05:32;;;;;;;7.75;1.92;;;7.40;99.90;;;;;;4988930;28;20026;-91
2022/02/03 05:11:52;;;;;;;7.18;2.05;;;7.40;99.90;;;;;;4988829;28;20033;-90
2022/02/03 05:15:05;;;;;;;7.60;1.80;;;7.50;99.90;;;;;;4973539;28;20050;-91
2022/02/03 05:44:56;;;;;;;7.05;1.63;;;7.50;99.90;;;;;;4989147;28;20045;-90
2022/02/03 06:04:02;;;;;;;4.78;2.05;;;7.40;99.90;;;;;;4948935;29;20115;-92
2022/02/03 06:14:41;;;;;;;8.57;1.60;;;7.30;99.90;;;;;;4924982;29;20023;-90
2022/02/03 06:22:44;;;;;;;5.30;1.48;;;7.30;99.90;;;;;;4926453;29;20056;-91
2022/02/03 06:27:48;;;;;;;9.05;1.73;;;7.30;99.90;;;;;;4934863;29;20050;-91
2022/02/03 06:30:18;;;;;;;9.40;1.80;;;7.30;99.90;;;;;;4927066;29;20024;-89
2022/02/03 06:32:44;;;;;;;7.60;1.77;;;7.30;99.90;;;;;;4926345;29;20035;-90
2022/02/03 06:35:13;;;;;;;2.42;1.40;;;7.30;99.90;;;;;;4938553;29;20174;-90
2022/02/03 06:37:45;;;;;;;6.28;1.50;;;7.30;99.90;;;;;;4957903;28;20027;-91
2022/02/03 06:40:11;;;;;;;6.88;1.50;;;7.30;99.90;;;;;;4967860;28;20050;-90
2022/02/03 06:42:54;;;;;;;9.07;2.17;;;7.30;99.90;;;;;;4947812;28;20050;-90
2022/02/03 06:45:48;;;;;;;13.18;1.73;;;7.30;99.90;;;;;;4971733;28;20479;-90
2022/02/03 06:48:15;;;;;;;6.57;1.85;;;7.30;99.90;;;;;;4988782;28;20035;-92
2022/02/03 06:50:45;;;;;;;6.22;2.10;;;7.30;99.90;;;;;;4970488;28;20096;-88
2022/02/03 06:53:19;;;;;;;6.85;1.55;;;7.30;99.90;;;;;;4986031;28;20022;-91
2022/02/03 06:58:24;;;;;;;12.85;2.42;;;7.30;99.90;;;;;;4986205;28;20023;-90
2022/02/03 07:01:16;;;;;;;5.93;1.60;;;7.40;99.90;;;;;;4985522;28;20138;-91
2022/02/03 07:03:46;;;;;;;4.97;1.33;;;7.40;99.90;;;;;;4983631;28;20019;-91
2022/02/03 07:06:13;;;;;;;6.70;1.30;;;7.40;99.90;;;;;;4970906;28;20030;-92
2022/02/03 07:08:41;;;;;;;5.70;1.63;;;7.40;99.90;;;;;;4967735;28;20062;-90
2022/02/03 07:11:17;;;;;;;8.55;1.70;;;7.30;99.90;;;;;;4967359;28;20038;-91
2022/02/03 07:13:43;;;;;;;5.38;1.63;;;7.30;99.90;;;;;;4969645;28;20027;-90
2022/02/03 07:16:09;;;;;;;6.45;1.70;;;7.30;99.90;;;;;;4964113;28;20437;-90
2022/02/03 07:18:34;;;;;;;7.30;1.65;;;7.30;99.90;;;;;;4964132;28;20122;-90
2022/02/03 07:21:00;;;;;;;4.78;1.90;;;7.30;99.90;;;;;;4986283;28;20054;-90
2022/02/03 07:23:26;;;;;;;4.70;1.70;;;7.30;99.90;;;;;;4986799;28;20061;-90
2022/02/03 07:25:52;;;;;;;3.50;1.73;;;7.30;99.90;;;;;;4985851;28;20027;-90
2022/02/03 07:28:19;;;;;;;9.38;2.25;;;7.30;99.90;;;;;;4970844;28;20015;-90
2022/02/03 07:30:47;;;;;;;7.20;1.83;;;7.30;99.90;;;;;;4988460;28;20038;-92
2022/02/03 07:33:13;;;;;;;6.45;1.50;;;7.20;99.90;;;;;;4985008;28;20427;-92
2022/02/03 07:35:39;;;;;;;5.85;3.75;;;7.20;99.90;;;;;;4970454;28;20033;-91
2022/02/03 07:38:07;;;;;;;8.30;3.13;;;7.30;99.90;;;;;;4971559;28;20028;-90
2022/02/03 07:40:34;;;;;;;5.95;2.60;;;7.20;99.90;;;;;;4967039;28;20033;-90
2022/02/03 07:43:03;;;;;;;9.52;2.80;;;7.30;99.90;;;;;;4986572;28;20050;-91
2022/02/03 07:45:30;;;;;;;5.85;2.30;;;7.20;99.90;;;;;;4975076;28;20073;-91
2022/02/03 07:47:56;;;;;;;8.63;2.15;;;7.20;99.90;;;;;;4971941;28;20026;-90
2022/02/03 07:50:23;;;;;;;7.82;2.70;;;7.20;99.90;;;;;;4967763;28;20038;-90
2022/02/03 07:52:49;;;;;;;8.40;2.97;;;7.20;99.90;;;;;;4968716;28;20089;-90
2022/02/03 07:55:16;;;;;;;6.65;2.53;;;7.20;99.90;;;;;;4969630;28;20026;-90
2022/02/03 07:57:51;;;;;;;5.97;2.75;;;7.20;99.90;;;;;;4968078;28;20030;-90
2022/02/03 08:00:20;;;;;;;8.40;2.50;;;7.20;99.90;;;;;;4968363;28;20041;-90
2022/02/03 08:02:46;;;;;;;4.88;2.20;;;7.20;99.90;;;;;;4967469;28;20027;-90
2022/02/03 08:05:18;;;;;;;4.43;2.33;;;7.20;99.90;;;;;;4973364;28;20114;-90
2022/02/03 08:08:04;;;;;;;11.82;3.47;;;7.20;99.90;;;;;;4959778;28;20391;-91
2022/02/03 08:11:06;;;;;;;7.20;2.40;;;7.20;99.90;;;;;;4950936;28;20027;-91
2022/02/03 08:13:32;;;;;;;6.03;2.20;;;7.30;99.90;;;;;;4988346;28;20146;-90
2022/02/03 08:16:04;;;;;;;6.65;2.30;;;7.20;99.90;;;;;;4978005;28;20076;-92
2022/02/03 08:18:33;;;;;;;6.88;2.03;;;7.20;99.90;;;;;;4971437;28;20133;-91
2022/02/03 08:21:03;;;;;;;7.78;2.28;;;7.30;99.90;;;;;;4976835;28;20487;-91
2022/02/03 08:26:13;;;;;;;4.68;1.73;;;7.30;99.90;;;;;;4994570;28;20031;-92
2022/02/03 08:31:20;;;;;;;7.38;2.28;;;7.30;99.90;;;;;;4989890;28;20054;-90
2022/02/03 08:33:50;;;;;;;6.68;1.70;;;7.30;99.90;;;;;;4963556;28;20435;-91
2022/02/03 08:36:16;;;;;;;9.82;3.00;;;7.30;99.90;;;;;;4977935;28;20034;-91
2022/02/03 08:41:09;;;;;;;9.65;2.80;;;7.40;99.90;;;;;;4977370;28;20369;-91
2022/02/03 08:43:37;;;;;;;9.50;2.15;;;7.40;99.90;;;;;;4946749;28;20026;-91
2022/02/03 08:46:18;;;;;;;7.82;1.70;;;7.40;99.90;;;;;;4967792;28;20117;-89
2022/02/03 08:48:44;;;;;;;6.93;1.80;;;7.40;99.90;;;;;;4953478;28;20125;-91
2022/02/03 08:51:16;;;;;;;2.67;1.60;;;7.40;99.90;;;;;;4952160;28;20122;-89
2022/02/03 08:53:51;;;;;;;7.80;1.45;;;7.40;99.90;;;;;;4976826;28;20403;-89
2022/02/03 08:56:43;;;;;;;4.63;1.05;;;7.50;99.90;;;;;;4968127;28;20030;-90
2022/02/03 09:31:10;;;;;;;5.60;1.42;;;7.60;99.90;;;;;;4988606;28;20026;-89
2022/02/03 09:38:01;;;;;;;5.70;1.30;;;7.60;99.90;;;;;;4972030;28;20057;-88
2022/02/03 09:59:14;;;;;;;4.03;1.52;;;7.70;99.90;;;;;;4985218;28;20073;-91
2022/02/03 10:02:06;;;;;;;;;;;7.70;99.90;;;;;;4975059;28;20026;-92
2022/02/03 10:04:53;;;;;;;5.72;2.58;;;7.70;99.90;;;;;;4995059;28;20287;-90
2022/02/03 10:07:25;;;;;;;4.70;2.22;;;7.70;99.90;;;;;;4978154;28;20109;-89
2022/02/03 10:10:07;;;;;;;7.25;2.30;;;7.70;99.90;;;;;;4961072;28;20042;-90
2022/02/03 10:12:39;;;;;;;5.65;2.38;;;7.70;99.90;;;;;;4976923;28;20057;-90
2022/02/03 10:15:06;;;;;;;6.10;2.20;;;7.70;99.90;;;;;;4982573;28;20031;-91
2022/02/03 10:17:45;;;;;;;6.07;2.10;;;7.80;99.90;;;;;;4967109;28;20057;-92
2022/02/03 10:20:15;;;;;;;10.02;2.60;;;7.80;99.90;;;;;;4991147;28;20085;-91
2022/02/03 10:23:19;;;;;;;9.15;2.88;;;7.80;99.90;;;;;;4969962;28;20031;-89
2022/02/03 10:25:47;;;;;;;6.68;1.90;;;7.80;99.90;;;;;;4993202;28;20431;-91
2022/02/03 10:28:15;;;;;;;5.20;1.70;;;7.80;99.90;;;;;;4985441;28;20018;-90
2022/02/03 10:30:51;;;;;;;1.52;1.42;;;7.80;99.90;;;;;;4993091;28;20034;-91
2022/02/03 10:33:19;;;;;;;4.28;1.85;;;7.80;99.90;;;;;;4967242;28;20118;-90
2022/02/03 10:35:59;;;;;;;3.22;2.00;;;7.80;99.90;;;;;;4956133;28;20026;-90
2022/02/03 10:38:50;;;;;;;4.10;1.85;;;7.80;99.90;;;;;;4971748;28;20141;-91
2022/02/03 10:44:28;;;;;;;2.95;1.80;;;7.80;99.90;;;;;;4993979;28;20037;-92
2022/02/03 10:47:23;;;;;;;4.75;2.13;;;7.90;99.90;;;;;;4965778;28;20046;-90
2022/02/03 11:08:13;;;;;;;4.47;1.30;;;7.90;99.90;;;;;;4988681;28;20026;-90
2022/02/03 11:10:44;;;;;;;4.05;1.23;;;8.00;99.90;;;;;;4971381;28;20081;-91
2022/02/03 11:13:11;;;;;;;5.20;2.20;;;7.90;99.90;;;;;;4956744;28;20026;-92
2022/02/03 11:15:43;;;;;;;4.00;1.95;;;8.00;99.90;;;;;;4988949;28;20034;-91
2022/02/03 11:18:17;;;;;;;3.88;1.70;;;8.00;99.90;;;;;;4988366;28;20039;-91
2022/02/03 12:18:09;;;;;;;;;;;8.50;99.90;;;;;;4954403;29;20115;-93
2022/02/03 12:20:50;;;;;;;2.47;1.10;;;8.50;99.90;;;;;;4955057;29;19958;-92
2022/02/03 12:28:56;;;;;;;3.40;1.20;;;8.70;99.90;;;;;;4951723;29;20114;-91
2022/02/03 12:39:21;;;;;;;1.75;0.90;;;8.90;99.90;;;;;;4957165;29;20042;-92
2022/02/03 12:45:17;;;;;;;1.73;0.90;;;9.00;99.90;;;;;;4918638;29;20548;-92
2022/02/03 12:47:53;;;;;;;2.30;0.80;;;9.00;99.90;;;;;;4923337;29;20051;-91
2022/02/03 12:50:31;;;;;;;2.17;0.88;;;9.00;99.90;;;;;;4907031;29;20112;-91
2022/02/03 12:52:59;;;;;;;2.20;1.05;;;9.10;99.90;;;;;;4917634;29;20036;-91
2022/02/03 12:55:38;;;;;;;1.48;1.00;;;9.10;99.90;;;;;;4917518;29;20036;-93
2022/02/03 12:58:09;;;;;;;3.88;1.08;;;9.20;99.90;;;;;;4917748;29;20059;-91
2022/02/03 13:00:45;;;;;;;4.55;1.10;;;9.30;99.90;;;;;;4918059;29;20032;-91
2022/02/03 13:03:16;;;;;;;4.07;0.90;;;9.70;99.90;;;;;;4918244;29;20032;-92
2022/02/03 13:05:53;;;;;;;1.33;1.10;;;10.30;99.90;;;;;;4936191;29;20126;-92
2022/02/03 13:08:30;;;;;;;3.30;0.80;;;11.00;99.90;;;;;;4920671;29;20393;-93
2022/02/03 13:17:12;;;;;;;1.70;0.80;;;13.00;99.90;;;;;;4920316;29;20032;-91
2022/02/03 13:22:22;;;;;;;2.60;1.20;;;13.30;99.90;;;;;;4970962;28;20408;-91
2022/02/03 13:27:41;;;;;;;8.30;1.30;;;12.70;99.90;;;;;;4977405;28;20027;-92
2022/02/03 13:30:15;;;;;;;2.00;1.30;;;12.30;99.90;;;;;;4980484;28;20023;-90
2022/02/03 13:36:28;;;;;;;4.55;1.50;;;11.70;99.90;;;;;;4999031;28;20113;-90
2022/02/03 13:43:41;;;;;;;4.35;1.50;;;11.20;99.90;;;;;;4979729;28;20057;-91
2022/02/03 13:47:06;;;;;;;4.35;1.25;;;11.10;99.90;;;;;;4961414;28;20027;-91
2022/02/03 14:15:02;;;;;;;5.47;1.10;;;12.60;99.90;;;;;;4896854;29;20055;-92
2022/02/03 14:20:37;;;;;;;6.03;1.35;;;12.70;99.90;;;;;;4897359;29;20040;-90
2022/02/03 14:28:18;;;;;;;1.95;1.00;;;12.20;99.90;;;;;;4897832;29;20039;-90
2022/02/03 14:30:47;;;;;;;2.75;1.10;;;12.00;99.90;;;;;;4897178;29;20113;-90
2022/02/03 14:33:22;;;;;;;3.55;0.90;;;11.80;99.90;;;;;;4884842;29;20162;-89
2022/02/03 14:35:48;;;;;;;2.03;0.98;;;11.70;99.90;;;;;;4885740;29;20434;-89
2022/02/03 14:38:28;;;;;;;1.52;0.90;;;11.70;99.90;;;;;;4901174;29;20037;-93
2022/02/03 14:41:17;;;;;;;1.98;0.90;;;11.60;99.90;;;;;;4901496;29;20136;-90
2022/02/03 14:43:42;;;;;;;2.22;0.82;;;11.50;99.90;;;;;;4901521;29;20048;-92
2022/02/03 14:46:13;;;;;;;2.90;0.85;;;11.50;99.90;;;;;;4964369;28;20424;-91
2022/02/03 14:49:01;;;;;;;2.08;1.10;;;11.40;99.90;;;;;;4979199;28;20039;-92
2022/02/03 14:51:43;;;;;;;1.55;1.13;;;11.30;99.90;;;;;;4962393;28;20061;-90
2022/02/03 14:59:51;;;;;;;3.97;0.70;;;11.30;99.90;;;;;;4981677;28;20065;-91
2022/02/03 15:02:25;;;;;;;1.80;0.88;;;11.40;99.90;;;;;;4963610;28;20038;-90
2022/02/03 15:04:54;;;;;;;1.30;0.80;;;11.50;99.90;;;;;;4979114;28;20031;-90
2022/02/03 15:07:33;;;;;;;1.85;0.85;;;11.40;99.90;;;;;;4980767;28;20023;-90
2022/02/03 15:10:27;;;;;;;4.07;0.95;;;11.40;99.90;;;;;;4984315;28;20027;-91
2022/02/03 15:13:04;;;;;;;1.98;1.05;;;11.30;99.90;;;;;;4964443;28;20065;-89
2022/02/03 15:15:32;;;;;;;3.85;1.10;;;11.50;99.90;;;;;;4978536;28;20027;-90
2022/02/03 15:18:17;;;;;;;3.80;1.25;;;11.80;99.90;;;;;;4979262;28;20257;-90
2022/02/03 15:20:47;;;;;;;1.35;0.90;;;11.90;99.90;;;;;;4961827;28;20054;-91
2022/02/03 15:23:23;;;;;;;4.00;1.08;;;11.90;99.90;;;;;;4962575;28;20039;-91
2022/02/03 15:25:57;;;;;;;3.88;1.15;;;11.90;99.90;;;;;;4963813;28;20496;-90
2022/02/03 15:28:29;;;;;;;4.75;1.70;;;11.60;99.90;;;;;;4963511;28;20062;-90
2022/02/03 15:31:45;;;;;;;3.42;0.77;;;11.50;99.90;;;;;;4966819;28;20050;-90
2022/02/03 15:34:20;;;;;;;5.13;0.90;;;11.30;99.90;;;;;;4987394;28;20062;-91
2022/02/03 15:36:55;;;;;;;5.63;0.88;;;11.10;99.90;;;;;;4993540;28;20039;-91
2022/02/03 15:39:40;;;;;;;4.30;1.00;;;11.10;99.90;;;;;;4974181;28;20369;-90
2022/02/03 15:42:27;;;;;;;2.70;1.02;;;11.00;99.90;;;;;;4986313;28;20039;-91
2022/02/03 15:45:18;;;;;;;9.60;2.42;;;10.90;99.90;;;;;;4981032;28;20038;-90
2022/02/03 15:48:08;;;;;;;2.10;0.95;;;10.80;99.90;;;;;;4975315;28;20043;-90
2022/02/03 16:18:07;;;;;;;6.18;1.42;;;10.20;99.90;;;;;;5018204;28;20072;-90
2022/02/03 16:20:40;;;;;;;3.50;1.15;;;10.10;99.90;;;;;;5000551;28;20033;-92
2022/02/03 16:53:31;;;;;;;3.58;1.52;;;9.60;99.90;;;;;;5016273;28;20117;-92
2022/02/03 16:56:21;;;;;;;2.60;1.80;;;9.60;99.90;;;;;;5015270;28;20026;-91
2022/02/03 16:58:48;;;;;;;2.33;1.00;;;9.50;99.90;;;;;;4998853;28;20498;-89
2022/02/03 17:01:19;;;;;;;5.20;1.30;;;9.50;99.90;;;;;;4982170;28;20037;-91
2022/02/03 17:03:47;;;;;;;5.38;1.10;;;9.50;99.90;;;;;;4993739;28;20041;-92
2022/02/03 17:06:18;;;;;;;1.85;1.00;;;9.40;99.90;;;;;;5002087;28;20085;-90
2022/02/03 17:08:53;;;;;;;3.90;1.52;;;9.40;99.90;;;;;;4980461;28;20027;-91
2022/02/03 17:11:20;;;;;;;6.07;1.20;;;9.40;99.90;;;;;;4997626;28;20034;-92
2022/02/03 17:14:09;;;;;;;6.00;1.23;;;9.40;99.90;;;;;;4996323;28;20037;-90
2022/02/03 17:16:40;;;;;;;;;;;9.30;99.90;;;;;;4997700;28;20030;-90
2022/02/03 17:19:10;;;;;;;4.57;1.20;;;9.30;99.90;;;;;;4979060;28;19933;-90
2022/02/03 17:21:38;;;;;;;5.23;1.27;;;9.20;99.90;;;;;;4978362;28;20089;-89
2022/02/03 17:24:08;;;;;;;4.07;1.10;;;9.20;99.90;;;;;;4978762;28;20049;-89
2022/02/03 17:26:49;;;;;;;4.57;1.67;;;9.20;99.90;;;;;;4978365;28;20030;-89
2022/02/03 17:29:28;;;;;;;4.78;1.33;;;9.20;99.90;;;;;;4978928;28;20129;-89
2022/02/03 17:32:20;;;;;;;8.35;1.73;;;9.20;99.90;;;;;;4978844;28;20031;-89
2022/02/03 18:04:00;;;;;;;9.68;1.23;;;9.10;99.90;;;;;;5013000;28;20108;-89
2022/02/03 18:08:58;;;;;;;6.25;1.77;;;9.10;99.90;;;;;;4996472;28;20045;-90
2022/02/03 18:17:33;;;;;;;4.40;1.48;;;9.10;99.90;;;;;;4930286;29;20051;-89
2022/02/03 18:50:25;;;;;;;7.03;1.55;;;9.00;99.90;;;;;;5011078;28;20112;-90
2022/02/03 18:55:37;;;;;;;5.15;1.75;;;9.00;99.90;;;;;;5014040;28;20076;-91
2022/02/03 19:00:50;;;;;;;7.78;1.58;;;9.00;99.90;;;;;;5009267;28;20033;-93
2022/02/03 19:09:24;;;;;;;6.07;1.77;;;9.00;99.90;;;;;;4994637;28;20468;-89
2022/02/03 19:12:34;;;;;;;9.75;1.67;;;9.00;99.90;;;;;;4981919;28;20037;-91
2022/02/03 20:06:01;;;;;;;7.90;1.58;;;8.90;99.90;;;;;;4976096;28;20124;-91
2022/02/03 20:08:39;;;;;;;5.38;1.67;;;8.90;99.90;;;;;;4968925;28;20027;-92
2022/02/03 20:11:05;;;;;;;6.22;1.42;;;8.90;99.90;;;;;;4980490;28;20049;-92
2022/02/03 20:13:31;;;;;;;5.88;1.10;;;8.90;99.90;;;;;;5017092;28;20026;-92
2022/02/03 20:15:57;;;;;;;10.38;1.63;;;8.90;99.90;;;;;;5017887;28;20572;-91
2022/02/03 20:18:24;;;;;;;6.95;1.33;;;8.90;99.90;;;;;;5015301;28;20030;-92
2022/02/03 20:20:49;;;;;;;6.80;1.48;;;9.00;99.90;;;;;;5004563;28;20044;-92
2022/02/03 20:23:18;;;;;;;9.45;1.85;;;9.00;99.90;;;;;;5006603;28;20051;-90
2022/02/03 20:25:53;;;;;;;10.02;1.42;;;9.00;99.90;;;;;;5007572;28;20093;-91
2022/02/03 20:28:19;;;;;;;5.80;1.85;;;9.00;99.90;;;;;;4996714;28;20019;-92
2022/02/03 20:30:46;;;;;;;4.13;1.13;;;9.00;99.90;;;;;;4995862;28;20034;-90
2022/02/03 20:33:11;;;;;;;7.28;1.33;;;9.00;99.90;;;;;;4995515;28;20034;-91
2022/02/03 20:35:37;;;;;;;11.32;1.50;;;9.00;99.90;;;;;;4995057;28;20377;-90
2022/02/03 20:38:03;;;;;;;12.48;2.20;;;9.00;99.90;;;;;;4991584;28;20117;-91
2022/02/03 20:40:29;;;;;;;9.68;1.70;;;9.00;99.90;;;;;;4995500;28;20088;-91
2022/02/03 20:42:57;;;;;;;14.32;2.67;;;9.00;99.90;;;;;;4995242;28;20030;-91
2022/02/03 20:45:23;;;;;;;8.90;1.50;;;9.00;99.90;;;;;;4995416;28;20026;-90
2022/02/03 20:47:49;;;;;;;17.30;3.90;;;9.00;99.90;;;;;;5008859;28;20029;-91
2022/02/03 20:50:20;;;;;;;9.95;1.50;;;9.00;99.90;;;;;;5014644;28;20040;-91
2022/02/03 20:52:46;;;;;;;10.73;2.40;;;9.00;99.90;;;;;;4998927;28;20045;-91
2022/02/03 20:55:12;;;;;;;3.60;1.02;;;9.00;99.90;;;;;;4993614;28;20496;-92
2022/02/03 20:57:38;;;;;;;11.55;1.60;;;9.00;99.90;;;;;;4994401;28;20037;-91
2022/02/03 21:05:13;;;;;;;5.47;1.23;;;8.90;99.90;;;;;;5006436;28;20038;-91
2022/02/03 21:07:42;;;;;;;10.40;1.80;;;9.00;99.90;;;;;;4998515;28;20022;-90
2022/02/03 21:10:11;;;;;;;5.78;1.15;;;8.90;99.90;;;;;;5002892;28;20037;-91
2022/02/03 21:12:37;;;;;;;9.82;1.50;;;8.90;99.90;;;;;;4998059;28;20022;-93
2022/02/03 21:15:08;;;;;;;15.50;2.05;;;9.00;99.90;;;;;;5003043;28;20031;-90
2022/02/03 21:17:34;;;;;;;;;;;8.90;99.90;;;;;;5003390;28;20092;-91
2022/02/03 21:20:13;;;;;;;5.70;1.30;;;9.00;99.90;;;;;;4991979;28;19917;-91
2022/02/03 21:22:39;;;;;;;11.63;1.23;;;9.00;99.90;;;;;;4996826;28;20089;-92
2022/02/03 21:25:34;;;;;;;6.68;1.17;;;9.00;99.90;;;;;;4997182;28;20072;-91
2022/02/03 21:28:15;;;;;;;10.05;2.10;;;9.00;99.90;;;;;;5000276;28;20096;-90
2022/02/03 21:30:43;;;;;;;9.30;1.73;;;9.00;99.90;;;;;;4999419;28;20037;-92
2022/02/03 21:33:13;;;;;;;6.15;1.27;;;9.00;99.90;;;;;;5007859;28;20029;-89
2022/02/03 21:35:40;;;;;;;11.07;1.03;;;9.00;99.90;;;;;;4997501;28;20022;-93
2022/02/03 21:38:06;;;;;;;5.57;1.50;;;9.00;99.90;;;;;;5010138;28;20977;-90
2022/02/03 21:40:33;;;;;;;8.57;1.25;;;9.00;99.90;;;;;;5008961;28;20120;-91
2022/02/03 21:43:01;;;;;;;6.28;1.15;;;9.00;99.90;;;;;;5004060;28;20022;-91
2022/02/03 21:45:27;;;;;;;9.73;1.52;;;8.90;99.90;;;;;;4998738;28;20045;-93
2022/02/03 21:47:53;;;;;;;14.25;2.70;;;9.00;99.90;;;;;;5001631;28;20018;-91
2022/02/03 21:50:20;;;;;;;8.45;1.30;;;9.00;99.90;;;;;;4997292;28;20021;-91
2022/02/03 21:52:50;;;;;;;7.82;1.23;;;9.00;99.90;;;;;;4998855;28;20037;-91
2022/02/03 21:55:16;;;;;;;5.53;1.35;;;9.00;99.90;;;;;;5000396;28;20096;-91
2022/02/03 21:57:46;;;;;;;9.38;1.35;;;9.00;99.90;;;;;;4999420;28;20181;-93
2022/02/03 22:00:19;;;;;;;9.95;1.23;;;9.00;99.90;;;;;;4995606;28;20069;-93
2022/02/03 22:02:50;;;;;;;5.90;1.60;;;9.00;99.90;;;;;;5003255;28;20036;-91
2022/02/03 22:05:19;;;;;;;2.15;0.43;;;9.00;99.90;;;;;;4992823;28;20101;-91
2022/02/03 22:07:48;;;;;;;7.72;1.10;;;9.00;99.90;;;;;;4977689;28;20487;-92
2022/02/03 22:10:20;;;;;;;8.63;1.35;;;9.00;99.90;;;;;;4978486;28;20061;-92
2022/02/03 22:12:48;;;;;;;6.18;0.85;;;9.00;99.90;;;;;;4978935;28;20114;-92
2022/02/03 22:15:14;;;;;;;4.97;1.27;;;9.00;99.90;;;;;;4979977;28;20030;-91
2022/02/03 22:17:40;;;;;;;9.40;1.45;;;9.00;99.90;;;;;;4979741;28;20042;-91
2022/02/03 22:20:19;;;;;;;6.60;1.00;;;9.00;99.90;;;;;;4980327;28;20038;-92
2022/02/03 22:23:07;;;;;;;4.03;1.10;;;9.00;99.90;;;;;;4993700;28;20037;-92
2022/02/03 22:39:16;;;;;;;10.80;1.45;;;9.00;99.90;;;;;;5013930;28;20521;-91
2022/02/03 22:49:37;;;;;;;10.75;1.48;;;8.90;99.90;;;;;;5014110;28;20042;-91
2022/02/03 22:52:04;;;;;;;9.98;2.30;;;8.90;99.90;;;;;;4995951;28;20030;-90
2022/02/03 22:54:29;;;;;;;9.13;1.20;;;8.90;99.90;;;;;;4998223;28;20088;-91
2022/02/03 22:56:57;;;;;;;11.15;1.45;;;8.90;99.90;;;;;;5000783;28;20026;-90
2022/02/03 23:00:05;;;;;;;9.32;1.10;;;8.90;99.90;;;;;;5000035;28;20038;-91
2022/02/03 23:02:14;;;;;;;12.75;1.90;;;8.90;99.90;;;;;;5017585;28;20048;-91
2022/02/03 23:04:41;;;;;;;11.45;1.60;;;9.00;99.90;;;;;;5002472;28;20025;-91
2022/02/03 23:07:16;;;;;;;13.90;1.67;;;9.00;99.90;;;;;;5019939;28;20083;-90
2022/02/03 23:09:54;;;;;;;10.68;2.13;;;8.90;99.90;;;;;;5018852;28;20029;-90
2022/02/03 23:12:42;;;;;;;14.70;1.92;;;8.90;99.90;;;;;;5019762;28;20402;-90
2022/02/03 23:17:45;;;;;;;13.45;1.33;;;8.90;99.90;;;;;;5042562;28;20036;-91
2022/02/03 23:22:41;;;;;;;8.38;1.73;;;8.90;99.90;;;;;;5017947;28;20087;-91
2022/02/03 23:25:15;;;;;;;5.72;1.60;;;8.90;99.90;;;;;;4999955;28;20108;-91
2022/02/03 23:28:08;;;;;;;17.92;2.38;;;8.90;99.90;;;;;;5000184;28;20034;-91
2022/02/03 23:30:34;;;;;;;12.25;2.92;;;8.90;99.90;;;;;;4996156;28;20030;-92
2022/02/03 23:33:02;;;;;;;6.95;1.25;;;8.90;99.90;;;;;;4995476;28;20036;-88
2022/02/03 23:35:32;;;;;;;14.13;2.17;;;8.90;99.90;;;;;;4995251;28;20031;-92
2022/02/03 23:46:08;;;;;;;10.75;1.90;;;8.90;99.90;;;;;;4995602;28;20403;-91
